Cape Cod — WBK3243 — position and weather

sailwx.info

Track history (hours):
 
Tides and Currents Weather Stations Pressure Air Temp Water Temp Dewpoint Dewpoint Depression Visibility Wind Speed Wind Dir Waves Ship Positions

Cape Cod

Owner: MORAN TOWING CORPORATION, New Canaan, CT. More information available from US FCC via Universal Licensing System and Coast Guard Vessel Documentation Center.

Last reported at 2015-Mar-01 08:17 UTC. Time now 2015-Mar-02 20:38 UTC.
Position N 38°59' W 075°08'.

Length 33 m; draft 4.8 m.

Type: Tug. MMSI: 366939770.

Date/timePositionNaut miles runAvg speedWind from/ knotsBaromVisibWave heightAir tempDewpointWater temp
2015-Mar-01 08:17N 38°59' W 075°08'4 3.3
2015-Mar-01 07:09N 39°02' W 075°09'812.9
2015-Mar-01 06:33N 39°09' W 075°14'1313.3
2015-Mar-01 05:33N 39°19' W 075°24'1313.3
2015-Mar-01 04:33N 39°31' W 075°33'1211.8
2015-Mar-01 03:33N 39°42' W 075°31'1010.3
2015-Mar-01 02:33N 39°50' W 075°22'9 9.0
2015-Mar-01 01:33N 39°53' W 075°11'0 0.1
2015-Mar-01 00:33N 39°53' W 075°11'0 0.0
2015-Feb-28 23:33N 39°53' W 075°11'2 2.3
2015-Feb-28 22:33N 39°54' W 075°08'0 0.1
2015-Feb-28 21:33N 39°54' W 075°08'0 0.2
2015-Feb-28 20:33N 39°54' W 075°08'5 4.7
2015-Feb-28 19:33N 39°59' W 075°06'6 6.4
2015-Feb-28 18:33N 39°53' W 075°09'1 1.2
2015-Feb-28 17:33N 39°53' W 075°11'0 0.0
2015-Feb-28 16:33N 39°53' W 075°11'0 0.0
2015-Feb-28 15:33N 39°53' W 075°11'0 0.0
2015-Feb-28 14:33N 39°53' W 075°11'0 0.0
2015-Feb-28 13:33N 39°53' W 075°11'0 0.0
2015-Feb-28 12:33N 39°53' W 075°11'2 2.1
2015-Feb-28 11:33N 39°54' W 075°08'2 2.1
2015-Feb-28 10:33N 39°53' W 075°11'0 0.0
2015-Feb-28 09:33N 39°53' W 075°11'0 0.0
2015-Feb-28 08:33N 39°53' W 075°11'0 0.0
2015-Feb-28 07:33N 39°53' W 075°11'0 0.0
2015-Feb-28 06:33N 39°53' W 075°11'2 2.3
2015-Feb-28 05:33N 39°54' W 075°08'2 2.3
2015-Feb-28 04:33N 39°53' W 075°10'2 1.9
2015-Feb-28 03:33N 39°54' W 075°08'0 0.0
2015-Feb-28 02:33N 39°54' W 075°08'0 0.0
2015-Feb-28 01:33N 39°54' W 075°08'6 5.6
2015-Feb-28 00:34N 39°51' W 075°15'1312.6
2015-Feb-27 23:34N 39°45' W 075°29'3 2.7
2015-Feb-27 22:33N 39°43' W 075°31'4 3.6
2015-Feb-27 21:33N 39°46' W 075°29'10 9.5
2015-Feb-27 20:33N 39°51' W 075°18'6 6.1
2015-Feb-27 19:33N 39°53' W 075°11'0 0.0
2015-Feb-27 18:33N 39°53' W 075°11'3 2.9
2015-Feb-27 17:33N 39°55' W 075°08'0 0.1
2015-Feb-27 16:33N 39°55' W 075°08'1 1.3
2015-Feb-27 15:33N 39°54' W 075°08'2 1.9
2015-Feb-27 14:33N 39°53' W 075°11'0 0.0
2015-Feb-27 13:33N 39°53' W 075°11'0 0.0
2015-Feb-27 12:33N 39°53' W 075°11'0 0.0
2015-Feb-27 11:33N 39°53' W 075°11'0 0.0
2015-Feb-27 10:34N 39°53' W 075°11'0 0.0
2015-Feb-27 09:33N 39°53' W 075°11'0 0.0
2015-Feb-27 08:33N 39°53' W 075°11'1 1.1
2015-Feb-27 07:33N 39°53' W 075°09'0 0.0
2015-Feb-27 06:34N 39°53' W 075°09'1 1.1
2015-Feb-27 05:33N 39°53' W 075°11'0 0.0
2015-Feb-27 04:33N 39°53' W 075°11'0 0.0
2015-Feb-27 03:33N 39°53' W 075°11'1 0.9
2015-Feb-27 02:34N 39°53' W 075°10'1 0.9
2015-Feb-27 01:33N 39°53' W 075°11'0 0.0
2015-Feb-27 00:33N 39°53' W 075°11'0 0.0
2015-Feb-26 23:34N 39°53' W 075°11'4 4.0
2015-Feb-26 22:33N 39°57' W 075°08'5 4.9
2015-Feb-26 21:33N 39°60' W 075°04'1211.7
2015-Feb-26 20:33N 40°06' W 074°50'2 1.7
2015-Feb-26 19:26N 40°08' W 074°49'1 1.2
2015-Feb-26 18:23N 40°07' W 074°50'2 2.1
2015-Feb-26 17:29N 40°05' W 074°52'7 7.6
2015-Feb-26 16:34N 40°02' W 074°60'8 8.0
2015-Feb-26 15:33N 39°57' W 075°08'5 4.5
2015-Feb-26 14:33N 39°53' W 075°11'0 0.0
2015-Feb-26 13:33N 39°53' W 075°11'0 0.0
2015-Feb-26 12:34N 39°53' W 075°11'0 0.0
2015-Feb-26 11:33N 39°53' W 075°11'0 0.0
2015-Feb-26 10:33N 39°53' W 075°11'2 1.9
2015-Feb-26 09:33N 39°54' W 075°08'1 0.8
2015-Feb-26 08:33N 39°53' W 075°09'1 1.1
2015-Feb-26 07:31N 39°54' W 075°08'0 0.0
2015-Feb-26 05:34N 39°54' W 075°08'0 0.0
2015-Feb-26 04:33N 39°54' W 075°08'1 0.8
2015-Feb-26 03:24N 39°55' W 075°08'1 1.0
2015-Feb-26 02:33N 39°54' W 075°08'0 0.1
2015-Feb-26 01:33N 39°54' W 075°08'1 0.6
2015-Feb-26 00:34N 39°54' W 075°08'2 2.0
2015-Feb-25 23:34N 39°53' W 075°11'0 0.0
2015-Feb-25 22:33N 39°53' W 075°11'0 0.0
2015-Feb-25 21:33N 39°53' W 075°11'0 0.0
2015-Feb-25 20:33N 39°53' W 075°11'0 0.0
2015-Feb-25 19:33N 39°53' W 075°11'0 0.0
2015-Feb-25 18:33N 39°53' W 075°11'0 0.0
2015-Feb-25 17:34N 39°53' W 075°11'0 0.0
2015-Feb-25 16:33N 39°53' W 075°11'0 0.0
2015-Feb-25 15:33N 39°53' W 075°11'1 0.9
2015-Feb-25 14:33N 39°53' W 075°10'0 0.1
2015-Feb-25 13:33N 39°53' W 075°09'2 2.5
2015-Feb-25 12:33N 39°52' W 075°13'1 0.6
2015-Feb-25 11:34N 39°53' W 075°12'1 1.2
2015-Feb-25 10:33N 39°53' W 075°11'4 3.6
2015-Feb-25 09:33N 39°56' W 075°08'0 0.1
2015-Feb-25 08:34N 39°56' W 075°08'1 0.8
2015-Feb-25 07:34N 39°55' W 075°08'1 1.4
2015-Feb-25 06:33N 39°54' W 075°08'0 0.0
2015-Feb-25 05:33N 39°54' W 075°08'0 0.0
2015-Feb-25 04:33N 39°54' W 075°08'0 0.0
2015-Feb-25 03:33N 39°54' W 075°08'2 2.4
2015-Feb-25 02:33N 39°53' W 075°11'1 0.8
2015-Feb-25 01:33N 39°54' W 075°12'0 0.0
2015-Feb-25 00:33N 39°54' W 075°12'0 0.0
2015-Feb-24 23:33N 39°53' W 075°12'0 0.0
2015-Feb-24 22:33N 39°53' W 075°12'0 0.0
2015-Feb-24 21:33N 39°53' W 075°12'0 0.0
2015-Feb-24 20:34N 39°53' W 075°12'0 0.0
2015-Feb-24 19:33N 39°53' W 075°12'0 0.1
2015-Feb-24 18:33N 39°53' W 075°12'1 0.9
2015-Feb-24 17:33N 39°53' W 075°11'0 0.0
2015-Feb-24 16:33N 39°53' W 075°11'0 0.0
2015-Feb-24 15:33N 39°53' W 075°11'0 0.0
2015-Feb-24 14:33N 39°53' W 075°11'0 0.0
2015-Feb-24 13:32N 39°53' W 075°11'0 0.4
2015-Feb-24 12:33N 39°53' W 075°11'2 2.4
2015-Feb-24 11:33N 39°54' W 075°08'0 0.2
2015-Feb-24 10:33N 39°54' W 075°08'0 0.1
2015-Feb-24 09:33N 39°54' W 075°08'0 0.0
2015-Feb-24 08:34N 39°54' W 075°08'0 0.4
2015-Feb-24 07:33N 39°54' W 075°08'1 1.0
2015-Feb-24 06:33N 39°53' W 075°08'3 2.8
2015-Feb-24 05:33N 39°56' W 075°08'4 3.4
2015-Feb-24 04:31N 39°53' W 075°11'0 0.0
2015-Feb-24 03:32N 39°53' W 075°11'6 6.1
2015-Feb-24 02:33N 39°51' W 075°18'1010.1
2015-Feb-24 01:33N 39°46' W 075°29'1010.5
2015-Feb-24 00:34N 39°36' W 075°34'1010.4
2015-Feb-23 23:33N 39°26' W 075°32'1111.2
2015-Feb-23 22:33N 39°17' W 075°22'1211.5
2015-Feb-23 21:32N 39°08' W 075°13'2 0.7
2015-Feb-23 19:25N 39°06' W 075°12'8 9.0
2015-Feb-23 18:34N 39°13' W 075°18'7 7.4
2015-Feb-23 17:34N 39°19' W 075°24'7 7.4
2015-Feb-23 16:33N 39°24' W 075°30'8 7.8
2015-Feb-23 15:34N 39°32' W 075°33'9 9.5
2015-Feb-23 14:33N 39°41' W 075°31'1110.6
2015-Feb-23 13:33N 39°49' W 075°23'1110.4
2015-Feb-23 12:30N 39°53' W 075°09'6 6.1
2015-Feb-23 11:33N 39°58' W 075°06'1 0.8
2015-Feb-23 10:32N 39°58' W 075°07'4 3.8
2015-Feb-23 09:32N 39°54' W 075°08'0 0.2
2015-Feb-23 08:30N 39°54' W 075°08'5 3.6
2015-Feb-23 07:06N 39°59' W 075°05'2 3.2
2015-Feb-23 06:33N 39°58' W 075°07'2 1.2
2015-Feb-23 05:07N 39°59' W 075°05'3 1.8
2015-Feb-23 03:33N 39°57' W 075°08'3 2.8
2015-Feb-23 02:33N 39°54' W 075°08'0 0.4
2015-Feb-23 01:33N 39°54' W 075°08'0 0.0
2015-Feb-23 00:33N 39°54' W 075°08'0 0.1
2015-Feb-22 23:33N 39°54' W 075°08'6 6.3
2015-Feb-22 22:32N 39°59' W 075°04'0 0.0
2015-Feb-22 17:29N 39°60' W 075°04'8 8.1
2015-Feb-22 16:33N 39°53' W 075°09'3 2.8
2015-Feb-22 15:33N 39°53' W 075°12'1 0.7
2015-Feb-22 14:33N 39°52' W 075°13'0 0.1
2015-Feb-22 13:33N 39°52' W 075°13'2 2.2
2015-Feb-22 12:33N 39°53' W 075°11'0 0.0
2015-Feb-22 11:20N 39°53' W 075°11'0 0.0
2015-Feb-22 08:16N 39°53' W 075°11'3 3.8
2015-Feb-22 07:33N 39°55' W 075°08'0 0.0
2015-Feb-21 23:18N 39°55' W 075°08'3 2.7
2015-Feb-21 22:08N 39°58' W 075°07'2 2.7
2015-Feb-21 21:33N 39°57' W 075°08'  
Track history (hours):
 
Tides and Currents Weather Stations Pressure Air Temp Water Temp Dewpoint Dewpoint Depression Visibility Wind Speed Wind Dir Waves Ship Positions

Cape Cod

Owner: MORAN TOWING CORPORATION, New Canaan, CT. More information available from US FCC via Universal Licensing System and Coast Guard Vessel Documentation Center.

Last reported at 2015-Mar-01 08:17 UTC. Time now 2015-Mar-02 20:38 UTC.
Position N 38°59' W 075°08'.

Length 33 m; draft 4.8 m.

Type: Tug. MMSI: 366939770.

Date/timePositionNaut miles runAvg speedWind from/ knotsBaromVisibWave heightAir tempDewpointWater temp
2015-Mar-01 08:17N 38°59' W 075°08'4 3.3
2015-Mar-01 07:09N 39°02' W 075°09'812.9
2015-Mar-01 06:33N 39°09' W 075°14'1313.3
2015-Mar-01 05:33N 39°19' W 075°24'1313.3
2015-Mar-01 04:33N 39°31' W 075°33'1211.8
2015-Mar-01 03:33N 39°42' W 075°31'1010.3
2015-Mar-01 02:33N 39°50' W 075°22'9 9.0
2015-Mar-01 01:33N 39°53' W 075°11'0 0.1
2015-Mar-01 00:33N 39°53' W 075°11'0 0.0
2015-Feb-28 23:33N 39°53' W 075°11'2 2.3
2015-Feb-28 22:33N 39°54' W 075°08'0 0.1
2015-Feb-28 21:33N 39°54' W 075°08'0 0.2
2015-Feb-28 20:33N 39°54' W 075°08'5 4.7
2015-Feb-28 19:33N 39°59' W 075°06'6 6.4
2015-Feb-28 18:33N 39°53' W 075°09'1 1.2
2015-Feb-28 17:33N 39°53' W 075°11'0 0.0
2015-Feb-28 16:33N 39°53' W 075°11'0 0.0
2015-Feb-28 15:33N 39°53' W 075°11'0 0.0
2015-Feb-28 14:33N 39°53' W 075°11'0 0.0
2015-Feb-28 13:33N 39°53' W 075°11'0 0.0
2015-Feb-28 12:33N 39°53' W 075°11'2 2.1
2015-Feb-28 11:33N 39°54' W 075°08'2 2.1
2015-Feb-28 10:33N 39°53' W 075°11'0 0.0
2015-Feb-28 09:33N 39°53' W 075°11'0 0.0
2015-Feb-28 08:33N 39°53' W 075°11'0 0.0
2015-Feb-28 07:33N 39°53' W 075°11'0 0.0
2015-Feb-28 06:33N 39°53' W 075°11'2 2.3
2015-Feb-28 05:33N 39°54' W 075°08'2 2.3
2015-Feb-28 04:33N 39°53' W 075°10'2 1.9
2015-Feb-28 03:33N 39°54' W 075°08'0 0.0
2015-Feb-28 02:33N 39°54' W 075°08'0 0.0
2015-Feb-28 01:33N 39°54' W 075°08'6 5.6
2015-Feb-28 00:34N 39°51' W 075°15'1312.6
2015-Feb-27 23:34N 39°45' W 075°29'3 2.7
2015-Feb-27 22:33N 39°43' W 075°31'4 3.6
2015-Feb-27 21:33N 39°46' W 075°29'10 9.5
2015-Feb-27 20:33N 39°51' W 075°18'6 6.1
2015-Feb-27 19:33N 39°53' W 075°11'0 0.0
2015-Feb-27 18:33N 39°53' W 075°11'3 2.9
2015-Feb-27 17:33N 39°55' W 075°08'0 0.1
2015-Feb-27 16:33N 39°55' W 075°08'1 1.3
2015-Feb-27 15:33N 39°54' W 075°08'2 1.9
2015-Feb-27 14:33N 39°53' W 075°11'0 0.0
2015-Feb-27 13:33N 39°53' W 075°11'0 0.0
2015-Feb-27 12:33N 39°53' W 075°11'0 0.0
2015-Feb-27 11:33N 39°53' W 075°11'0 0.0
2015-Feb-27 10:34N 39°53' W 075°11'0 0.0
2015-Feb-27 09:33N 39°53' W 075°11'0 0.0
2015-Feb-27 08:33N 39°53' W 075°11'1 1.1
2015-Feb-27 07:33N 39°53' W 075°09'0 0.0
2015-Feb-27 06:34N 39°53' W 075°09'1 1.1
2015-Feb-27 05:33N 39°53' W 075°11'0 0.0
2015-Feb-27 04:33N 39°53' W 075°11'0 0.0
2015-Feb-27 03:33N 39°53' W 075°11'1 0.9
2015-Feb-27 02:34N 39°53' W 075°10'1 0.9
2015-Feb-27 01:33N 39°53' W 075°11'0 0.0
2015-Feb-27 00:33N 39°53' W 075°11'0 0.0
2015-Feb-26 23:34N 39°53' W 075°11'4 4.0
2015-Feb-26 22:33N 39°57' W 075°08'5 4.9
2015-Feb-26 21:33N 39°60' W 075°04'1211.7
2015-Feb-26 20:33N 40°06' W 074°50'2 1.7
2015-Feb-26 19:26N 40°08' W 074°49'1 1.2
2015-Feb-26 18:23N 40°07' W 074°50'2 2.1
2015-Feb-26 17:29N 40°05' W 074°52'7 7.6
2015-Feb-26 16:34N 40°02' W 074°60'8 8.0
2015-Feb-26 15:33N 39°57' W 075°08'5 4.5
2015-Feb-26 14:33N 39°53' W 075°11'0 0.0
2015-Feb-26 13:33N 39°53' W 075°11'0 0.0
2015-Feb-26 12:34N 39°53' W 075°11'0 0.0
2015-Feb-26 11:33N 39°53' W 075°11'0 0.0
2015-Feb-26 10:33N 39°53' W 075°11'2 1.9
2015-Feb-26 09:33N 39°54' W 075°08'1 0.8
2015-Feb-26 08:33N 39°53' W 075°09'1 1.1
2015-Feb-26 07:31N 39°54' W 075°08'0 0.0
2015-Feb-26 05:34N 39°54' W 075°08'0 0.0
2015-Feb-26 04:33N 39°54' W 075°08'1 0.8
2015-Feb-26 03:24N 39°55' W 075°08'1 1.0
2015-Feb-26 02:33N 39°54' W 075°08'0 0.1
2015-Feb-26 01:33N 39°54' W 075°08'1 0.6
2015-Feb-26 00:34N 39°54' W 075°08'2 2.0
2015-Feb-25 23:34N 39°53' W 075°11'0 0.0
2015-Feb-25 22:33N 39°53' W 075°11'0 0.0
2015-Feb-25 21:33N 39°53' W 075°11'0 0.0
2015-Feb-25 20:33N 39°53' W 075°11'0 0.0
2015-Feb-25 19:33N 39°53' W 075°11'0 0.0
2015-Feb-25 18:33N 39°53' W 075°11'0 0.0
2015-Feb-25 17:34N 39°53' W 075°11'0 0.0
2015-Feb-25 16:33N 39°53' W 075°11'0 0.0
2015-Feb-25 15:33N 39°53' W 075°11'1 0.9
2015-Feb-25 14:33N 39°53' W 075°10'0 0.1
2015-Feb-25 13:33N 39°53' W 075°09'2 2.5
2015-Feb-25 12:33N 39°52' W 075°13'1 0.6
2015-Feb-25 11:34N 39°53' W 075°12'1 1.2
2015-Feb-25 10:33N 39°53' W 075°11'4 3.6
2015-Feb-25 09:33N 39°56' W 075°08'0 0.1
2015-Feb-25 08:34N 39°56' W 075°08'1 0.8
2015-Feb-25 07:34N 39°55' W 075°08'1 1.4
2015-Feb-25 06:33N 39°54' W 075°08'0 0.0
2015-Feb-25 05:33N 39°54' W 075°08'0 0.0
2015-Feb-25 04:33N 39°54' W 075°08'0 0.0
2015-Feb-25 03:33N 39°54' W 075°08'2 2.4
2015-Feb-25 02:33N 39°53' W 075°11'1 0.8
2015-Feb-25 01:33N 39°54' W 075°12'0 0.0
2015-Feb-25 00:33N 39°54' W 075°12'0 0.0
2015-Feb-24 23:33N 39°53' W 075°12'0 0.0
2015-Feb-24 22:33N 39°53' W 075°12'0 0.0
2015-Feb-24 21:33N 39°53' W 075°12'0 0.0
2015-Feb-24 20:34N 39°53' W 075°12'0 0.0
2015-Feb-24 19:33N 39°53' W 075°12'0 0.1
2015-Feb-24 18:33N 39°53' W 075°12'1 0.9
2015-Feb-24 17:33N 39°53' W 075°11'0 0.0
2015-Feb-24 16:33N 39°53' W 075°11'0 0.0
2015-Feb-24 15:33N 39°53' W 075°11'0 0.0
2015-Feb-24 14:33N 39°53' W 075°11'0 0.0
2015-Feb-24 13:32N 39°53' W 075°11'0 0.4
2015-Feb-24 12:33N 39°53' W 075°11'2 2.4
2015-Feb-24 11:33N 39°54' W 075°08'0 0.2
2015-Feb-24 10:33N 39°54' W 075°08'0 0.1
2015-Feb-24 09:33N 39°54' W 075°08'0 0.0
2015-Feb-24 08:34N 39°54' W 075°08'0 0.4
2015-Feb-24 07:33N 39°54' W 075°08'1 1.0
2015-Feb-24 06:33N 39°53' W 075°08'3 2.8
2015-Feb-24 05:33N 39°56' W 075°08'4 3.4
2015-Feb-24 04:31N 39°53' W 075°11'0 0.0
2015-Feb-24 03:32N 39°53' W 075°11'6 6.1
2015-Feb-24 02:33N 39°51' W 075°18'1010.1
2015-Feb-24 01:33N 39°46' W 075°29'1010.5
2015-Feb-24 00:34N 39°36' W 075°34'1010.4
2015-Feb-23 23:33N 39°26' W 075°32'1111.2
2015-Feb-23 22:33N 39°17' W 075°22'1211.5
2015-Feb-23 21:32N 39°08' W 075°13'2 0.7
2015-Feb-23 19:25N 39°06' W 075°12'8 9.0
2015-Feb-23 18:34N 39°13' W 075°18'7 7.4
2015-Feb-23 17:34N 39°19' W 075°24'7 7.4
2015-Feb-23 16:33N 39°24' W 075°30'8 7.8
2015-Feb-23 15:34N 39°32' W 075°33'9 9.5
2015-Feb-23 14:33N 39°41' W 075°31'1110.6
2015-Feb-23 13:33N 39°49' W 075°23'1110.4
2015-Feb-23 12:30N 39°53' W 075°09'6 6.1
2015-Feb-23 11:33N 39°58' W 075°06'1 0.8
2015-Feb-23 10:32N 39°58' W 075°07'4 3.8
2015-Feb-23 09:32N 39°54' W 075°08'0 0.2
2015-Feb-23 08:30N 39°54' W 075°08'5 3.6
2015-Feb-23 07:06N 39°59' W 075°05'2 3.2
2015-Feb-23 06:33N 39°58' W 075°07'2 1.2
2015-Feb-23 05:07N 39°59' W 075°05'3 1.8
2015-Feb-23 03:33N 39°57' W 075°08'3 2.8
2015-Feb-23 02:33N 39°54' W 075°08'0 0.4
2015-Feb-23 01:33N 39°54' W 075°08'0 0.0
2015-Feb-23 00:33N 39°54' W 075°08'0 0.1
2015-Feb-22 23:33N 39°54' W 075°08'6 6.3
2015-Feb-22 22:32N 39°59' W 075°04'0 0.0
2015-Feb-22 17:29N 39°60' W 075°04'8 8.1
2015-Feb-22 16:33N 39°53' W 075°09'3 2.8
2015-Feb-22 15:33N 39°53' W 075°12'1 0.7
2015-Feb-22 14:33N 39°52' W 075°13'0 0.1
2015-Feb-22 13:33N 39°52' W 075°13'2 2.2
2015-Feb-22 12:33N 39°53' W 075°11'0 0.0
2015-Feb-22 11:20N 39°53' W 075°11'0 0.0
2015-Feb-22 08:16N 39°53' W 075°11'3 3.8
2015-Feb-22 07:33N 39°55' W 075°08'0 0.0
2015-Feb-21 23:18N 39°55' W 075°08'3 2.7
2015-Feb-21 22:08N 39°58' W 075°07'2 2.7
2015-Feb-21 21:33N 39°57' W 075°08'  

Dump ship's entire track history